createdAt,value
2022-10-23T00:00:32.016Z,10.37
2022-10-23T00:01:31.905Z,10.34
2022-10-23T00:02:32.953Z,10.34
2022-10-23T00:03:31.894Z,10.25
2022-10-23T00:04:31.889Z,10.22
2022-10-23T00:05:31.903Z,10.34
2022-10-23T00:06:31.871Z,10.26
2022-10-23T00:07:31.888Z,10.23
2022-10-23T00:08:31.856Z,10.30
2022-10-23T00:09:31.852Z,10.25
2022-10-23T00:10:31.865Z,10.20
2022-10-23T00:11:31.829Z,10.26
2022-10-23T00:12:31.822Z,10.30
2022-10-23T00:13:31.816Z,10.30
2022-10-23T00:14:31.808Z,10.33
2022-10-23T00:15:31.832Z,10.30
2022-10-23T00:16:31.802Z,10.33
2022-10-23T00:17:31.780Z,10.17
2022-10-23T00:18:31.771Z,10.22
2022-10-23T00:19:31.770Z,10.31
2022-10-23T00:20:31.790Z,10.30
2022-10-23T00:21:31.758Z,10.26
2022-10-23T00:22:31.744Z,10.34
2022-10-23T00:23:31.751Z,10.31
2022-10-23T00:24:31.728Z,10.25
2022-10-23T00:25:31.762Z,10.17
2022-10-23T00:26:31.714Z,10.26
2022-10-23T00:27:31.710Z,10.23
2022-10-23T00:28:31.702Z,10.26
2022-10-23T00:29:31.699Z,10.19
2022-10-23T00:30:31.719Z,10.15
2022-10-23T00:31:31.684Z,10.07
2022-10-23T00:33:31.670Z,10.13
2022-10-23T00:34:31.662Z,10.07
2022-10-23T00:35:31.646Z,10.10
2022-10-23T00:36:31.660Z,10.20
2022-10-23T00:37:31.646Z,10.12
2022-10-23T00:38:31.633Z,10.15
2022-10-23T00:39:31.616Z,10.19
2022-10-23T00:40:31.610Z,10.13
2022-10-23T00:41:31.620Z,10.13
2022-10-23T00:42:31.594Z,10.12
2022-10-23T00:43:31.583Z,10.16
2022-10-23T00:44:31.575Z,10.16
2022-10-23T00:45:31.572Z,10.10
2022-10-23T00:46:31.589Z,10.12
2022-10-23T00:47:31.558Z,10.13
2022-10-23T00:48:31.551Z,10.17
2022-10-23T00:49:33.516Z,10.17
2022-10-23T00:50:32.537Z,10.15
2022-10-23T00:51:31.546Z,10.09
2022-10-23T00:52:31.514Z,10.15
2022-10-23T00:53:31.504Z,10.07
2022-10-23T00:54:31.498Z,10.12
2022-10-23T00:55:31.484Z,10.15
2022-10-23T00:56:31.504Z,10.16
2022-10-23T00:57:31.486Z,10.09
2022-10-23T00:58:31.465Z,10.13
2022-10-23T00:59:31.460Z,10.12
2022-10-23T01:00:31.454Z,10.16
2022-10-23T01:01:31.675Z,10.09
2022-10-23T01:02:31.497Z,10.09
2022-10-23T01:03:31.426Z,9.98
2022-10-23T01:04:31.412Z,10.02
2022-10-23T01:05:31.441Z,10.12
2022-10-23T01:06:31.401Z,9.98
2022-10-23T01:07:31.391Z,9.98
2022-10-23T01:08:31.381Z,10.09
2022-10-23T01:09:31.368Z,10.09
2022-10-23T01:10:31.394Z,10.09
2022-10-23T01:11:31.363Z,10.02
2022-10-23T01:12:31.346Z,10.07
2022-10-23T01:13:31.345Z,9.99
2022-10-23T01:14:31.337Z,10.07
2022-10-23T01:15:31.329Z,10.13
2022-10-23T01:16:31.356Z,9.99
2022-10-23T01:17:31.310Z,10.02
2022-10-23T01:18:31.308Z,10.10
2022-10-23T01:19:31.296Z,10.09
2022-10-23T01:20:31.295Z,10.05
2022-10-23T01:21:31.315Z,10.13
2022-10-23T01:22:31.274Z,10.02
2022-10-23T01:23:31.268Z,10.07
2022-10-23T01:24:31.260Z,10.15
2022-10-23T01:25:31.247Z,10.07
2022-10-23T01:26:31.281Z,10.15
2022-10-23T01:27:31.234Z,10.10
2022-10-23T01:28:31.231Z,10.16
2022-10-23T01:29:31.223Z,10.15
2022-10-23T01:30:31.288Z,10.12
2022-10-23T01:31:31.241Z,10.05
2022-10-23T01:32:31.205Z,10.15
2022-10-23T01:33:31.185Z,10.15
2022-10-23T01:34:31.173Z,10.17
2022-10-23T01:35:31.172Z,10.28
2022-10-23T01:36:31.203Z,10.22
2022-10-23T01:37:31.163Z,10.25
2022-10-23T01:38:31.151Z,10.20
2022-10-23T01:39:31.146Z,10.28
2022-10-23T01:40:31.137Z,10.22
2022-10-23T01:41:31.151Z,10.26
2022-10-23T01:42:31.118Z,10.23
2022-10-23T01:43:31.106Z,10.13
2022-10-23T01:44:31.098Z,10.09
2022-10-23T01:45:31.090Z,10.16
2022-10-23T01:46:31.123Z,10.23
2022-10-23T01:47:31.084Z,10.16
2022-10-23T01:48:31.068Z,10.02
2022-10-23T01:49:31.061Z,10.12
2022-10-23T01:50:31.054Z,10.02
2022-10-23T01:51:31.072Z,10.12
2022-10-23T01:52:31.042Z,10.09
2022-10-23T01:53:31.022Z,10.12
2022-10-23T01:54:31.028Z,10.12
2022-10-23T01:55:31.141Z,10.04
2022-10-23T01:56:31.005Z,10.02
2022-10-23T01:57:31.025Z,10.15
2022-10-23T01:58:30.987Z,9.99
2022-10-23T01:59:30.982Z,10.09
2022-10-23T02:00:30.980Z,9.99
2022-10-23T02:01:31.060Z,10.05
2022-10-23T02:02:31.034Z,10.02
2022-10-23T02:03:30.955Z,9.99
2022-10-23T02:04:30.953Z,10.12
2022-10-23T02:05:30.930Z,9.98
2022-10-23T02:06:31.942Z,10.15
2022-10-23T02:07:30.946Z,10.02
2022-10-23T02:08:30.923Z,10.05
2022-10-23T02:09:30.914Z,10.07
2022-10-23T02:10:30.902Z,10.04
2022-10-23T02:11:30.889Z,9.99
2022-10-23T02:12:30.920Z,10.12
2022-10-23T02:13:30.879Z,10.09
2022-10-23T02:14:30.867Z,10.12
2022-10-23T02:15:30.863Z,10.07
2022-10-23T02:16:30.860Z,10.09
2022-10-23T02:17:30.870Z,10.13
2022-10-23T02:18:30.841Z,10.05
2022-10-23T02:19:30.831Z,10.02
2022-10-23T02:20:31.857Z,10.15
2022-10-23T02:21:30.819Z,10.07
2022-10-23T02:22:30.829Z,10.22
2022-10-23T02:23:30.807Z,10.13
2022-10-23T02:24:30.785Z,10.19
2022-10-23T02:25:30.781Z,10.19
2022-10-23T02:26:30.779Z,10.10
2022-10-23T02:27:30.790Z,10.09
2022-10-23T02:28:30.763Z,10.10
2022-10-23T02:29:30.752Z,10.07
2022-10-23T02:30:30.745Z,10.17
2022-10-23T02:31:30.736Z,10.02
2022-10-23T02:32:30.753Z,10.16
2022-10-23T02:33:30.712Z,10.10
2022-10-23T02:34:30.716Z,10.04
2022-10-23T02:35:30.695Z,10.07
2022-10-23T02:36:30.693Z,10.02
2022-10-23T02:37:30.730Z,10.19
2022-10-23T02:38:30.677Z,10.22
2022-10-23T02:39:30.673Z,10.19
2022-10-23T02:40:30.658Z,10.22
2022-10-23T02:41:30.651Z,10.23
2022-10-23T02:42:30.674Z,10.19
2022-10-23T02:43:30.639Z,10.10
2022-10-23T02:44:30.633Z,10.15
2022-10-23T02:45:30.673Z,10.25
2022-10-23T02:46:30.615Z,10.12
2022-10-23T02:47:30.604Z,10.13
2022-10-23T02:48:30.631Z,10.12
2022-10-23T02:49:30.602Z,10.04
2022-10-23T02:50:30.590Z,10.09
2022-10-23T02:51:30.574Z,10.13
2022-10-23T02:52:30.598Z,10.23
2022-10-23T02:53:30.562Z,10.23
2022-10-23T02:54:30.554Z,10.05
2022-10-23T02:55:30.546Z,10.13
2022-10-23T02:56:31.826Z,10.13
2022-10-23T02:57:30.552Z,10.20
2022-10-23T02:58:30.518Z,10.16
2022-10-23T02:59:30.517Z,10.22
2022-10-23T03:00:30.497Z,10.22
2022-10-23T03:01:31.578Z,10.30
2022-10-23T03:03:31.491Z,10.15
2022-10-23T03:04:30.485Z,10.23
2022-10-23T03:05:30.472Z,10.22
2022-10-23T03:06:30.458Z,10.25
2022-10-23T03:07:30.499Z,10.20
2022-10-23T03:08:30.452Z,10.25
2022-10-23T03:09:30.444Z,10.13
2022-10-23T03:10:30.428Z,10.23
2022-10-23T03:11:30.427Z,10.13
2022-10-23T03:12:30.442Z,10.12
2022-10-23T03:13:30.403Z,10.10
2022-10-23T03:14:30.405Z,10.01
2022-10-23T03:15:30.393Z,10.09
2022-10-23T03:16:30.383Z,10.09
2022-10-23T03:17:30.387Z,10.04
2022-10-23T03:18:30.393Z,10.04
2022-10-23T03:19:30.358Z,10.09
2022-10-23T03:20:30.356Z,10.10
2022-10-23T03:21:30.343Z,10.15
2022-10-23T03:22:30.350Z,10.05
2022-10-23T03:23:30.357Z,10.10
2022-10-23T03:24:30.325Z,10.13
2022-10-23T03:25:30.316Z,10.19
2022-10-23T03:26:30.310Z,10.28
2022-10-23T03:27:30.300Z,10.22
2022-10-23T03:28:30.317Z,10.16
2022-10-23T03:29:30.288Z,10.13
2022-10-23T03:30:30.272Z,10.20
2022-10-23T03:31:30.267Z,10.17
2022-10-23T03:32:30.264Z,10.16
2022-10-23T03:33:30.284Z,10.28
2022-10-23T03:34:30.239Z,10.09
2022-10-23T03:35:30.237Z,10.13
2022-10-23T03:36:30.235Z,10.13
2022-10-23T03:37:30.220Z,10.17
2022-10-23T03:38:30.237Z,10.16
2022-10-23T03:39:30.206Z,10.04
2022-10-23T03:40:30.194Z,10.10
2022-10-23T03:41:30.197Z,10.04
2022-10-23T03:42:30.191Z,9.98
2022-10-23T03:43:30.197Z,10.09
2022-10-23T03:44:30.170Z,10.01
2022-10-23T03:45:30.160Z,9.97
2022-10-23T03:46:30.159Z,9.92
2022-10-23T03:47:30.141Z,10.01
2022-10-23T03:48:30.155Z,10.02
2022-10-23T03:49:30.138Z,9.98
2022-10-23T03:50:30.119Z,9.83
2022-10-23T03:51:30.115Z,9.89
2022-10-23T03:52:30.107Z,9.91
2022-10-23T03:53:30.121Z,9.87
2022-10-23T03:54:30.088Z,9.84
2022-10-23T03:55:30.083Z,9.80
2022-10-23T03:56:30.072Z,9.82
2022-10-23T03:57:30.064Z,9.74
2022-10-23T03:58:30.079Z,9.72
2022-10-23T03:59:30.048Z,9.73
2022-10-23T04:00:30.090Z,9.66
2022-10-23T04:01:30.149Z,9.64
2022-10-23T04:02:30.070Z,9.58
2022-10-23T04:03:30.037Z,9.68
2022-10-23T04:04:30.001Z,9.62
2022-10-23T04:05:29.991Z,9.59
2022-10-23T04:06:29.988Z,9.41
2022-10-23T04:07:29.981Z,9.50
2022-10-23T04:08:29.992Z,9.47
2022-10-23T04:09:29.961Z,9.47
2022-10-23T04:10:29.958Z,9.44
2022-10-23T04:11:29.945Z,9.47
2022-10-23T04:12:29.936Z,9.55
2022-10-23T04:13:29.957Z,9.44
2022-10-23T04:14:29.921Z,9.43
2022-10-23T04:15:29.923Z,9.39
2022-10-23T04:16:29.907Z,9.43
2022-10-23T04:17:29.925Z,9.36
2022-10-23T04:18:29.913Z,9.37
2022-10-23T04:19:29.878Z,9.31
2022-10-23T04:20:29.875Z,9.39
2022-10-23T04:21:29.868Z,9.34
2022-10-23T04:22:29.862Z,9.22
2022-10-23T04:23:29.877Z,9.26
2022-10-23T04:24:29.849Z,9.29
2022-10-23T04:25:29.837Z,9.29
2022-10-23T04:26:29.831Z,9.21
2022-10-23T04:27:29.825Z,9.25
2022-10-23T04:28:29.843Z,9.14
2022-10-23T04:29:29.800Z,9.16
2022-10-23T04:30:29.803Z,9.21
2022-10-23T04:31:29.791Z,9.19
2022-10-23T04:32:29.780Z,9.26
2022-10-23T04:33:29.803Z,9.23
2022-10-23T04:34:29.759Z,9.22
2022-10-23T04:35:29.762Z,9.22
2022-10-23T04:36:29.745Z,9.19
2022-10-23T04:37:29.776Z,9.13
2022-10-23T04:38:29.763Z,9.14
2022-10-23T04:39:29.719Z,9.19
2022-10-23T04:40:29.719Z,9.06
2022-10-23T04:41:29.711Z,9.04
2022-10-23T04:42:29.702Z,9.02
2022-10-23T04:43:29.695Z,8.99
2022-10-23T04:44:29.707Z,9.16
2022-10-23T04:45:29.672Z,9.03
2022-10-23T04:46:29.662Z,9.16
2022-10-23T04:47:29.661Z,9.00
2022-10-23T04:48:29.645Z,9.08
2022-10-23T04:49:29.672Z,9.10
2022-10-23T04:50:29.643Z,9.13
2022-10-23T04:51:29.628Z,9.08
2022-10-23T04:52:29.615Z,9.02
2022-10-23T04:53:29.619Z,9.11
2022-10-23T04:54:29.633Z,9.03
2022-10-23T04:55:29.603Z,9.11
2022-10-23T04:56:29.606Z,9.03
2022-10-23T04:57:29.589Z,9.10
2022-10-23T04:58:29.576Z,9.16
2022-10-23T04:59:29.596Z,9.10
2022-10-23T05:00:29.628Z,9.19
2022-10-23T05:01:29.608Z,9.11
2022-10-23T05:02:29.539Z,9.23
2022-10-23T05:03:29.587Z,9.21
2022-10-23T05:04:29.535Z,9.08
2022-10-23T05:05:30.517Z,9.14
2022-10-23T05:06:29.505Z,9.22
2022-10-23T05:07:29.507Z,9.18
2022-10-23T05:08:29.490Z,9.14
2022-10-23T05:09:29.512Z,9.10
2022-10-23T05:10:29.475Z,9.13
2022-10-23T05:11:29.467Z,9.18
2022-10-23T05:12:29.458Z,9.13
2022-10-23T05:13:29.457Z,8.99
2022-10-23T05:14:29.469Z,9.14
2022-10-23T05:15:29.515Z,8.99
2022-10-23T05:16:29.432Z,9.26
2022-10-23T05:17:29.428Z,9.06
2022-10-23T05:18:29.420Z,9.10
2022-10-23T05:19:29.435Z,9.10
2022-10-23T05:20:29.400Z,9.16
2022-10-23T05:21:29.397Z,8.99
2022-10-23T05:22:29.386Z,9.02
2022-10-23T05:23:29.382Z,9.10
2022-10-23T05:24:29.394Z,9.11
2022-10-23T05:25:29.363Z,9.10
2022-10-23T05:26:29.363Z,9.14
2022-10-23T05:27:29.348Z,9.26
2022-10-23T05:28:29.343Z,9.10
2022-10-23T05:29:29.357Z,9.18
2022-10-23T05:30:29.325Z,9.18
2022-10-23T05:31:29.316Z,9.19
2022-10-23T05:32:29.311Z,9.19
2022-10-23T05:33:29.303Z,9.14
2022-10-23T05:34:29.326Z,9.23
2022-10-23T05:35:29.283Z,9.31
2022-10-23T05:36:29.272Z,9.22
2022-10-23T05:37:29.264Z,9.22
2022-10-23T05:38:29.258Z,9.34
2022-10-23T05:39:29.277Z,9.29
2022-10-23T05:40:29.356Z,9.31
2022-10-23T05:41:29.238Z,9.26
2022-10-23T05:42:29.229Z,9.32
2022-10-23T05:43:29.223Z,9.37
2022-10-23T05:44:29.240Z,9.36
2022-10-23T05:45:29.207Z,9.29
2022-10-23T05:46:29.200Z,9.36
2022-10-23T05:47:29.188Z,9.40
2022-10-23T05:48:36.254Z,9.36
2022-10-23T05:49:31.199Z,9.36
2022-10-23T05:50:29.165Z,9.39
2022-10-23T05:51:29.160Z,9.40
2022-10-23T05:52:29.151Z,9.32
2022-10-23T05:53:29.144Z,9.34
2022-10-23T05:54:29.157Z,9.43
2022-10-23T05:55:29.128Z,9.37
2022-10-23T05:56:29.120Z,9.46
2022-10-23T05:57:29.111Z,9.34
2022-10-23T05:58:29.105Z,9.50
2022-10-23T05:59:29.120Z,9.47
2022-10-23T06:00:29.113Z,9.46
2022-10-23T06:01:29.287Z,9.58
2022-10-23T06:02:29.146Z,9.40
2022-10-23T06:03:29.069Z,9.46
2022-10-23T06:04:29.085Z,9.50
2022-10-23T06:05:29.098Z,9.36
2022-10-23T06:06:29.045Z,9.37
2022-10-23T06:07:31.213Z,9.36
2022-10-23T06:08:29.028Z,9.36
2022-10-23T06:09:29.043Z,9.40
2022-10-23T06:10:29.077Z,9.32
2022-10-23T06:11:29.005Z,9.39
2022-10-23T06:12:28.999Z,9.46
2022-10-23T06:13:28.988Z,9.40
2022-10-23T06:14:29.008Z,9.40
2022-10-23T06:15:28.971Z,9.41
2022-10-23T06:16:28.964Z,9.34
2022-10-23T06:17:28.961Z,9.47
2022-10-23T06:18:28.955Z,9.47
2022-10-23T06:19:28.969Z,9.39
2022-10-23T06:20:28.979Z,9.44
2022-10-23T06:21:28.929Z,9.36
2022-10-23T06:22:28.924Z,9.37
2022-10-23T06:23:28.914Z,9.48
2022-10-23T06:24:28.929Z,9.51
2022-10-23T06:25:28.901Z,9.55
2022-10-23T06:26:28.892Z,9.40
2022-10-23T06:27:28.887Z,9.46
2022-10-23T06:28:28.877Z,9.43
2022-10-23T06:29:28.892Z,9.50
2022-10-23T06:30:28.990Z,9.43
2022-10-23T06:31:28.860Z,9.51
2022-10-23T06:32:28.853Z,9.51
2022-10-23T06:33:28.837Z,9.59
2022-10-23T06:34:28.857Z,9.61
2022-10-23T06:35:28.821Z,9.61
2022-10-23T06:36:28.816Z,9.62
2022-10-23T06:37:28.807Z,9.56
2022-10-23T06:38:28.798Z,9.61
2022-10-23T06:39:31.942Z,9.69
2022-10-23T06:40:28.863Z,9.64
2022-10-23T06:41:28.772Z,9.74
2022-10-23T06:42:28.767Z,9.68
2022-10-23T06:43:28.760Z,9.84
2022-10-23T06:44:28.788Z,9.92
2022-10-23T06:45:28.739Z,9.84
2022-10-23T06:46:28.734Z,9.83
2022-10-23T06:47:28.726Z,9.98
2022-10-23T06:48:28.716Z,9.91
2022-10-23T06:49:28.735Z,10.02
2022-10-23T06:50:28.703Z,9.99
2022-10-23T06:51:28.692Z,9.99
2022-10-23T06:52:45.940Z,10.01
2022-10-23T06:53:30.676Z,10.09
2022-10-23T06:54:28.669Z,10.05
2022-10-23T06:55:28.738Z,10.07
2022-10-23T06:56:28.656Z,10.17
2022-10-23T06:57:28.651Z,10.20
2022-10-23T06:58:28.643Z,10.19
2022-10-23T06:59:28.665Z,10.28
2022-10-23T07:00:28.796Z,10.41
2022-10-23T07:01:28.798Z,10.26
2022-10-23T07:02:28.615Z,10.30
2022-10-23T07:03:28.605Z,10.31
2022-10-23T07:04:28.630Z,10.37
2022-10-23T07:05:28.587Z,10.44
2022-10-23T07:06:28.579Z,10.61
2022-10-23T07:07:28.578Z,10.61
2022-10-23T07:08:28.563Z,10.81
2022-10-23T07:09:28.586Z,10.87
2022-10-23T07:10:28.558Z,11.08
2022-10-23T07:11:28.539Z,11.15
2022-10-23T07:12:28.533Z,11.65
2022-10-23T07:13:28.524Z,12.42
2022-10-23T07:14:28.516Z,12.98
2022-10-23T07:15:28.534Z,13.53
2022-10-23T07:16:28.530Z,13.87
2022-10-23T07:17:28.498Z,14.08
2022-10-23T07:18:28.532Z,14.22
2022-10-23T07:19:28.481Z,14.28
2022-10-23T07:20:28.473Z,13.83
2022-10-23T07:21:28.495Z,13.75
2022-10-23T07:22:28.460Z,13.75
2022-10-23T07:23:28.455Z,13.67
2022-10-23T07:24:28.446Z,13.35
2022-10-23T07:25:28.437Z,13.16
2022-10-23T07:26:28.462Z,12.94
2022-10-23T07:27:28.420Z,13.01
2022-10-23T07:28:28.422Z,13.30
2022-10-23T07:29:28.407Z,13.59
2022-10-23T07:30:28.400Z,13.42
2022-10-23T07:31:28.512Z,13.28
2022-10-23T07:32:28.386Z,13.13
2022-10-23T07:33:28.377Z,12.93
2022-10-23T07:34:28.368Z,12.93
2022-10-23T07:35:28.365Z,12.93
2022-10-23T07:36:28.355Z,12.83
2022-10-23T07:37:28.373Z,12.95
2022-10-23T07:38:28.341Z,12.80
2022-10-23T07:39:28.338Z,12.54
2022-10-23T07:40:28.326Z,12.57
2022-10-23T07:41:28.322Z,12.40
2022-10-23T07:42:28.335Z,12.31
2022-10-23T07:43:28.353Z,12.35
2022-10-23T07:44:28.297Z,12.24
2022-10-23T07:45:28.293Z,12.20
2022-10-23T07:46:28.287Z,12.24
2022-10-23T07:47:28.299Z,12.22
2022-10-23T07:48:28.263Z,12.25
2022-10-23T07:49:28.272Z,12.40
2022-10-23T07:50:28.250Z,12.37
2022-10-23T07:51:28.244Z,12.46
2022-10-23T07:52:32.002Z,12.58
2022-10-23T07:53:30.223Z,12.64
2022-10-23T07:54:28.217Z,12.62
2022-10-23T07:55:28.208Z,12.46
2022-10-23T07:56:28.199Z,12.46
2022-10-23T07:57:28.220Z,12.39
2022-10-23T07:58:28.187Z,12.31
2022-10-23T07:59:28.176Z,12.04
2022-10-23T08:00:28.174Z,12.04
2022-10-23T08:01:28.283Z,11.91
2022-10-23T08:02:28.253Z,11.84
2022-10-23T08:03:28.142Z,11.84
2022-10-23T08:04:28.135Z,11.87
2022-10-23T08:05:28.127Z,12.06
2022-10-23T08:06:28.122Z,11.99
2022-10-23T08:07:28.138Z,12.00
2022-10-23T08:08:28.108Z,12.06
2022-10-23T08:09:28.101Z,12.03
2022-10-23T08:10:28.091Z,12.03
2022-10-23T08:11:28.079Z,12.09
2022-10-23T08:12:28.100Z,12.07
2022-10-23T08:13:28.069Z,12.04
2022-10-23T08:14:28.060Z,11.95
2022-10-23T08:15:28.058Z,12.02
2022-10-23T08:16:28.053Z,12.22
2022-10-23T08:17:28.359Z,12.28
2022-10-23T08:18:28.028Z,12.25
2022-10-23T08:19:28.021Z,12.37
2022-10-23T08:20:28.011Z,12.54
2022-10-23T08:21:28.005Z,12.78
2022-10-23T08:22:28.018Z,12.94
2022-10-23T08:23:27.989Z,13.01
2022-10-23T08:24:27.973Z,13.33
2022-10-23T08:25:27.995Z,13.44
2022-10-23T08:26:27.964Z,13.50
2022-10-23T08:27:27.981Z,13.33
2022-10-23T08:28:27.945Z,13.44
2022-10-23T08:29:27.943Z,13.47
2022-10-23T08:30:27.927Z,13.65
2022-10-23T08:31:27.922Z,13.75
2022-10-23T08:32:27.941Z,13.83
2022-10-23T08:33:27.907Z,13.83
2022-10-23T08:34:27.898Z,13.95
2022-10-23T08:35:27.888Z,14.00
2022-10-23T08:36:27.881Z,13.89
2022-10-23T08:37:27.901Z,14.00
2022-10-23T08:38:27.868Z,13.95
2022-10-23T08:39:27.859Z,13.97
2022-10-23T08:40:27.853Z,13.85
2022-10-23T08:41:27.847Z,13.83
2022-10-23T08:42:27.864Z,13.78
2022-10-23T08:43:27.828Z,13.92
2022-10-23T08:44:27.823Z,13.81
2022-10-23T08:45:27.818Z,13.77
2022-10-23T08:46:27.807Z,13.79
2022-10-23T08:47:27.833Z,13.86
2022-10-23T08:48:27.789Z,13.81
2022-10-23T08:49:27.784Z,13.67
2022-10-23T08:51:27.765Z,13.74
2022-10-23T08:52:27.786Z,13.71
2022-10-23T08:53:27.746Z,13.60
2022-10-23T08:54:27.786Z,13.56
2022-10-23T08:55:27.735Z,13.74
2022-10-23T08:56:27.727Z,13.81
2022-10-23T08:57:27.725Z,14.08
2022-10-23T08:58:27.744Z,14.12
2022-10-23T08:59:27.704Z,14.25
2022-10-23T09:00:27.703Z,14.44
2022-10-23T09:01:27.773Z,14.45
2022-10-23T09:02:27.771Z,14.81
2022-10-23T09:03:27.701Z,15.07
2022-10-23T09:04:27.667Z,15.24
2022-10-23T09:05:27.661Z,15.54
2022-10-23T09:06:27.653Z,15.98
2022-10-23T09:07:27.649Z,16.43
2022-10-23T09:08:27.664Z,16.66
2022-10-23T09:09:27.633Z,16.91
2022-10-23T09:10:27.618Z,17.23
2022-10-23T09:11:27.609Z,16.96
2022-10-23T09:12:27.606Z,16.66
2022-10-23T09:13:27.627Z,16.43
2022-10-23T09:14:27.596Z,16.24
2022-10-23T09:15:27.584Z,16.08
2022-10-23T09:16:27.574Z,15.98
2022-10-23T09:17:27.575Z,15.70
2022-10-23T09:18:27.584Z,15.65
2022-10-23T09:19:27.552Z,15.72
2022-10-23T09:20:27.543Z,15.54
2022-10-23T09:21:27.539Z,15.40
2022-10-23T09:22:27.528Z,15.36
2022-10-23T09:23:27.547Z,15.21
2022-10-23T09:24:27.532Z,15.29
2022-10-23T09:25:27.506Z,15.36
2022-10-23T09:26:27.502Z,15.61
2022-10-23T09:27:27.498Z,15.68
2022-10-23T09:28:27.510Z,15.80
2022-10-23T09:29:27.482Z,16.01
2022-10-23T09:30:27.476Z,16.39
2022-10-23T09:31:27.466Z,16.83
2022-10-23T09:32:27.458Z,17.15
2022-10-23T09:33:27.478Z,17.38
2022-10-23T09:34:27.447Z,17.71
2022-10-23T09:35:27.439Z,17.76
2022-10-23T09:36:27.427Z,17.51
2022-10-23T09:37:27.429Z,17.22
2022-10-23T09:38:27.434Z,17.14
2022-10-23T09:39:27.400Z,17.36
2022-10-23T09:40:27.395Z,17.59
2022-10-23T09:41:27.389Z,17.90
2022-10-23T09:42:27.381Z,18.03
2022-10-23T09:43:27.399Z,18.29
2022-10-23T09:44:27.362Z,18.20
2022-10-23T09:45:27.359Z,18.07
2022-10-23T09:46:27.348Z,17.95
2022-10-23T09:47:27.337Z,17.86
2022-10-23T09:48:27.376Z,17.79
2022-10-23T09:49:27.321Z,17.70
2022-10-23T09:50:27.315Z,17.65
2022-10-23T09:51:27.308Z,17.65
2022-10-23T09:52:27.300Z,17.71
2022-10-23T09:53:27.317Z,17.80
2022-10-23T09:54:27.283Z,17.71
2022-10-23T09:55:27.275Z,17.74
2022-10-23T09:56:27.269Z,17.76
2022-10-23T09:57:27.265Z,17.78
2022-10-23T09:58:27.254Z,17.64
2022-10-23T09:59:27.273Z,17.41
2022-10-23T10:00:27.236Z,17.24
2022-10-23T10:01:27.346Z,17.06
2022-10-23T10:02:27.223Z,16.93
2022-10-23T10:03:27.220Z,16.86
2022-10-23T10:04:27.237Z,16.89
2022-10-23T10:05:27.207Z,16.81
2022-10-23T10:06:27.251Z,16.87
2022-10-23T10:07:27.197Z,16.93
2022-10-23T10:08:27.184Z,16.93
2022-10-23T10:09:27.200Z,16.87
2022-10-23T10:10:27.168Z,16.91
2022-10-23T10:11:27.154Z,16.72
2022-10-23T10:12:27.148Z,16.71
2022-10-23T10:13:27.140Z,16.53
2022-10-23T10:14:27.160Z,16.57
2022-10-23T10:15:27.127Z,16.33
2022-10-23T10:16:27.160Z,16.33
2022-10-23T10:17:27.113Z,16.38
2022-10-23T10:18:27.103Z,16.46
2022-10-23T10:19:27.130Z,16.47
2022-10-23T10:20:27.088Z,16.61
2022-10-23T10:21:27.086Z,16.58
2022-10-23T10:22:27.073Z,16.57
2022-10-23T10:23:27.067Z,16.65
2022-10-23T10:24:27.084Z,16.58
2022-10-23T10:25:27.051Z,16.75
2022-10-23T10:26:27.098Z,16.84
2022-10-23T10:27:27.039Z,17.01
2022-10-23T10:28:27.036Z,17.04
2022-10-23T10:29:27.049Z,17.06
2022-10-23T10:30:27.013Z,17.11
2022-10-23T10:31:27.007Z,17.11
2022-10-23T10:32:27.004Z,17.11
2022-10-23T10:33:26.990Z,17.05
2022-10-23T10:34:27.016Z,17.16
2022-10-23T10:35:26.977Z,17.33
2022-10-23T10:36:26.973Z,17.31
2022-10-23T10:37:26.961Z,17.24
2022-10-23T10:38:26.951Z,17.34
2022-10-23T10:39:26.970Z,17.39
2022-10-23T10:40:26.937Z,17.39
2022-10-23T10:41:26.931Z,17.49
2022-10-23T10:42:26.931Z,17.48
2022-10-23T10:43:26.914Z,17.60
2022-10-23T10:44:26.935Z,17.71
2022-10-23T10:45:26.906Z,17.78
2022-10-23T10:46:26.899Z,17.87
2022-10-23T10:47:26.885Z,17.85
2022-10-23T10:48:26.877Z,17.98
2022-10-23T10:49:26.903Z,17.95
2022-10-23T10:50:26.864Z,18.04
2022-10-23T10:51:26.880Z,18.07
2022-10-23T10:52:26.853Z,17.98
2022-10-23T10:53:26.847Z,18.10
2022-10-23T10:54:26.862Z,18.18
2022-10-23T10:55:26.823Z,18.16
2022-10-23T10:56:27.831Z,18.28
2022-10-23T10:57:26.820Z,18.25
2022-10-23T10:58:26.817Z,18.28
2022-10-23T10:59:26.827Z,18.37
2022-10-23T11:00:26.794Z,18.31
2022-10-23T11:01:27.026Z,18.34
2022-10-23T11:02:26.807Z,18.34
2022-10-23T11:03:26.765Z,18.41
2022-10-23T11:04:27.793Z,18.40
2022-10-23T11:05:26.760Z,18.55
2022-10-23T11:06:26.757Z,18.45
2022-10-23T11:07:26.745Z,18.55
2022-10-23T11:08:26.737Z,18.53
2022-10-23T11:09:26.750Z,18.62
2022-10-23T11:10:26.718Z,18.63
2022-10-23T11:11:26.713Z,18.77
2022-10-23T11:12:26.706Z,18.73
2022-10-23T11:13:26.700Z,18.75
2022-10-23T11:14:26.711Z,18.88
2022-10-23T11:15:26.681Z,18.86
2022-10-23T11:16:26.676Z,18.89
2022-10-23T11:17:26.662Z,18.92
2022-10-23T11:18:26.657Z,18.90
2022-10-23T11:19:26.674Z,18.99
2022-10-23T11:20:26.651Z,18.93
2022-10-23T11:21:26.635Z,18.98
2022-10-23T11:22:26.631Z,18.98
2022-10-23T11:23:26.622Z,18.93
2022-10-23T11:24:26.637Z,19.04
2022-10-23T11:25:26.609Z,19.00
2022-10-23T11:26:26.600Z,18.88
2022-10-23T11:27:26.593Z,18.81
2022-10-23T11:28:26.581Z,18.77
2022-10-23T11:29:26.604Z,18.99
2022-10-23T11:30:26.566Z,18.96
2022-10-23T11:31:26.557Z,18.93
2022-10-23T11:32:26.588Z,18.93
2022-10-23T11:33:26.544Z,18.90
2022-10-23T11:34:26.537Z,18.83
2022-10-23T11:35:26.556Z,18.83
2022-10-23T11:36:26.532Z,18.84
2022-10-23T11:37:26.515Z,18.89
2022-10-23T11:38:26.509Z,18.71
2022-10-23T11:39:26.501Z,18.75
2022-10-23T11:40:26.517Z,18.65
2022-10-23T11:41:27.265Z,18.73
2022-10-23T11:42:26.479Z,18.74
2022-10-23T11:43:26.468Z,18.70
2022-10-23T11:44:26.460Z,18.71
2022-10-23T11:45:26.479Z,18.70
2022-10-23T11:46:26.446Z,18.63
2022-10-23T11:47:26.442Z,18.75
2022-10-23T11:48:26.433Z,18.71
2022-10-23T11:49:26.426Z,18.74
2022-10-23T11:50:26.438Z,18.83
2022-10-23T11:51:26.413Z,18.68
2022-10-23T11:52:26.400Z,18.74
2022-10-23T11:53:26.396Z,18.80
2022-10-23T11:54:26.381Z,18.70
2022-10-23T11:55:26.405Z,18.73
2022-10-23T11:56:26.375Z,18.77
2022-10-23T11:57:26.420Z,18.77
2022-10-23T11:58:26.359Z,18.68
2022-10-23T11:59:26.347Z,18.80
2022-10-23T12:00:26.358Z,18.74
2022-10-23T12:01:26.456Z,18.84
2022-10-23T12:02:26.354Z,18.71
2022-10-23T12:03:26.312Z,18.68
2022-10-23T12:04:26.308Z,18.68
2022-10-23T12:05:26.320Z,18.74
2022-10-23T12:06:26.293Z,18.65
2022-10-23T12:07:26.278Z,18.58
2022-10-23T12:08:26.274Z,18.60
2022-10-23T12:09:26.266Z,18.60
2022-10-23T12:10:26.282Z,18.65
2022-10-23T12:11:27.582Z,18.65
2022-10-23T12:12:26.242Z,18.70
2022-10-23T12:13:26.237Z,18.68
2022-10-23T12:14:26.232Z,18.74
2022-10-23T12:15:26.243Z,18.71
2022-10-23T12:16:26.215Z,18.80
2022-10-23T12:17:26.201Z,18.77
2022-10-23T12:18:26.183Z,18.77
2022-10-23T12:19:27.181Z,18.71
2022-10-23T12:20:26.201Z,18.70
2022-10-23T12:21:26.172Z,18.70
2022-10-23T12:22:26.197Z,18.65
2022-10-23T12:23:26.152Z,18.66
2022-10-23T12:24:26.144Z,18.43
2022-10-23T12:25:26.169Z,18.44
2022-10-23T12:26:26.132Z,18.45
2022-10-23T12:27:26.122Z,18.55
2022-10-23T12:28:26.115Z,18.49
2022-10-23T12:29:26.103Z,18.50
2022-10-23T12:30:26.123Z,18.53
2022-10-23T12:31:26.094Z,18.47
2022-10-23T12:32:26.082Z,18.34
2022-10-23T12:33:26.080Z,18.28
2022-10-23T12:34:26.072Z,18.29
2022-10-23T12:35:26.089Z,18.20
2022-10-23T12:36:26.057Z,18.29
2022-10-23T12:37:26.046Z,18.25
2022-10-23T12:38:26.045Z,18.25
2022-10-23T12:39:26.034Z,18.38
2022-10-23T12:40:26.047Z,18.31
2022-10-23T12:41:26.023Z,18.29
2022-10-23T12:42:26.010Z,18.35
2022-10-23T12:43:26.000Z,18.43
2022-10-23T12:44:25.988Z,18.38
2022-10-23T12:45:26.015Z,18.38
2022-10-23T12:46:25.984Z,18.35
2022-10-23T12:47:26.024Z,18.41
2022-10-23T12:48:25.961Z,18.43
2022-10-23T12:49:25.954Z,18.44
2022-10-23T12:50:25.973Z,18.49
2022-10-23T12:51:25.941Z,18.52
2022-10-23T12:52:25.934Z,18.56
2022-10-23T12:53:25.927Z,18.52
2022-10-23T12:54:25.918Z,18.55
2022-10-23T12:55:25.939Z,18.62
2022-10-23T12:56:25.906Z,18.66
2022-10-23T12:57:25.934Z,18.66
2022-10-23T12:58:25.889Z,18.62
2022-10-23T12:59:25.881Z,18.66
2022-10-23T13:00:25.895Z,18.71
2022-10-23T13:01:25.985Z,18.74